createdAt,value
2017-12-10T00:01:19.820Z,2.53
2017-12-10T00:03:47.233Z,2.80
2017-12-10T00:06:14.649Z,2.93
2017-12-10T00:08:42.061Z,3.27
2017-12-10T00:11:10.241Z,2.87
2017-12-10T00:13:38.416Z,3.50
2017-12-10T00:16:05.829Z,2.60
2017-12-10T00:18:33.255Z,2.83
2017-12-10T00:21:00.683Z,3.00
2017-12-10T00:23:28.852Z,3.10
2017-12-10T00:25:57.025Z,2.07
2017-12-10T00:28:25.227Z,3.10
2017-12-10T00:30:52.623Z,1.90
2017-12-10T00:33:20.030Z,3.03
2017-12-10T00:35:47.450Z,3.20
2017-12-10T00:38:14.856Z,2.80
2017-12-10T00:40:42.274Z,2.40
2017-12-10T00:43:10.507Z,3.07
2017-12-10T00:45:37.911Z,2.60
2017-12-10T00:48:06.092Z,3.10
2017-12-10T00:50:33.510Z,2.17
2017-12-10T00:53:00.918Z,2.80
2017-12-10T00:55:28.330Z,2.90
2017-12-10T00:57:55.741Z,3.03
2017-12-10T01:00:23.153Z,3.40
2017-12-10T01:02:51.328Z,2.03
2017-12-10T01:05:19.525Z,1.90
2017-12-10T01:07:46.930Z,2.33
2017-12-10T01:10:14.342Z,2.90
2017-12-10T01:12:41.753Z,1.77
2017-12-10T01:15:09.169Z,3.10
2017-12-10T01:17:36.582Z,2.00
2017-12-10T01:20:04.754Z,3.30
2017-12-10T01:22:32.934Z,2.80
2017-12-10T01:25:01.129Z,3.20
2017-12-10T01:27:28.534Z,2.67
2017-12-10T01:29:55.942Z,3.00
2017-12-10T01:32:23.356Z,3.03
2017-12-10T01:34:50.769Z,3.00
2017-12-10T01:37:18.170Z,2.80
2017-12-10T01:39:45.582Z,3.90
2017-12-10T01:42:12.993Z,2.90
2017-12-10T01:44:41.175Z,3.03
2017-12-10T01:47:09.376Z,3.30
2017-12-10T01:49:36.772Z,3.20
2017-12-10T01:52:04.190Z,3.33
2017-12-10T01:54:31.601Z,3.30
2017-12-10T01:56:59.009Z,3.33
2017-12-10T01:59:26.427Z,2.93
2017-12-10T02:01:54.609Z,3.77
2017-12-10T02:04:22.021Z,3.57
2017-12-10T02:06:49.448Z,3.60
2017-12-10T02:09:16.853Z,4.13
2017-12-10T02:11:44.270Z,3.33
2017-12-10T02:14:11.693Z,2.53
2017-12-10T02:16:39.105Z,3.87
2017-12-10T02:19:06.528Z,3.70
2017-12-10T02:21:33.928Z,3.37
2017-12-10T02:24:01.354Z,2.33
2017-12-10T02:26:28.753Z,3.57
2017-12-10T02:28:56.941Z,2.63
2017-12-10T02:31:24.381Z,2.80
2017-12-10T02:33:52.566Z,3.37
2017-12-10T02:36:20.746Z,2.37
2017-12-10T02:38:48.930Z,2.37
2017-12-10T02:41:16.341Z,3.10
2017-12-10T02:43:43.767Z,4.03
2017-12-10T02:46:24.281Z,3.33
2017-12-10T02:48:52.470Z,2.70
2017-12-10T02:51:19.873Z,3.53
2017-12-10T02:53:47.284Z,3.30
2017-12-10T02:56:14.694Z,3.20
2017-12-10T02:58:42.116Z,2.60
2017-12-10T03:01:10.321Z,3.00
2017-12-10T03:03:37.755Z,2.93
2017-12-10T03:06:05.157Z,3.17
2017-12-10T03:08:33.335Z,3.07
2017-12-10T03:11:00.742Z,2.70
2017-12-10T03:13:28.155Z,3.00
2017-12-10T03:15:56.333Z,2.90
2017-12-10T03:18:24.513Z,3.37
2017-12-10T03:20:52.694Z,2.90
2017-12-10T03:23:20.646Z,3.53
2017-12-10T03:25:48.830Z,3.50
2017-12-10T03:28:17.001Z,2.73
2017-12-10T03:30:45.191Z,3.40
2017-12-10T03:33:12.598Z,2.93
2017-12-10T03:35:40.019Z,3.07
2017-12-10T03:38:07.422Z,3.30
2017-12-10T03:40:35.601Z,3.53
2017-12-10T03:43:03.790Z,3.43
2017-12-10T03:45:31.961Z,3.73
2017-12-10T03:48:00.151Z,3.53
2017-12-10T03:50:27.560Z,3.80
2017-12-10T03:52:54.965Z,3.20
2017-12-10T03:55:22.368Z,3.73
2017-12-10T03:57:49.785Z,3.17
2017-12-10T04:00:17.189Z,4.00
2017-12-10T04:02:44.612Z,4.10
2017-12-10T04:05:12.020Z,3.87
2017-12-10T04:07:40.211Z,3.60
2017-12-10T04:10:07.605Z,3.30
2017-12-10T04:12:35.023Z,2.67
2017-12-10T04:15:02.428Z,4.47
2017-12-10T04:17:29.850Z,3.20
2017-12-10T04:19:57.262Z,4.53
2017-12-10T04:22:24.666Z,3.73
2017-12-10T04:24:52.082Z,3.73
2017-12-10T04:27:20.276Z,3.90
2017-12-10T04:29:47.685Z,3.07
2017-12-10T04:32:15.093Z,3.70
2017-12-10T04:34:42.509Z,3.90
2017-12-10T04:37:09.919Z,4.13
2017-12-10T04:39:37.338Z,3.17
2017-12-10T04:42:05.524Z,3.27
2017-12-10T04:44:33.702Z,4.10
2017-12-10T04:47:01.112Z,3.50
2017-12-10T04:49:28.531Z,3.70
2017-12-10T04:51:55.940Z,3.37
2017-12-10T04:54:23.357Z,3.47
2017-12-10T04:56:50.788Z,3.63
2017-12-10T04:59:18.189Z,3.63
2017-12-10T05:01:45.596Z,3.10
2017-12-10T05:04:13.015Z,5.23
2017-12-10T05:06:40.417Z,3.90
2017-12-10T05:09:07.842Z,4.33
2017-12-10T05:11:36.035Z,3.17
2017-12-10T05:14:03.441Z,3.33
2017-12-10T05:16:30.869Z,5.27
2017-12-10T05:18:58.278Z,4.60
2017-12-10T05:21:25.690Z,4.07
2017-12-10T05:23:53.108Z,3.80
2017-12-10T05:26:20.524Z,5.83
2017-12-10T05:28:47.943Z,4.33
2017-12-10T05:31:15.366Z,4.50
2017-12-10T05:33:43.533Z,4.53
2017-12-10T05:36:11.714Z,4.43
2017-12-10T05:38:39.900Z,3.93
2017-12-10T05:41:08.100Z,3.60
2017-12-10T05:43:35.497Z,3.83
2017-12-10T05:46:02.907Z,3.30
2017-12-10T05:48:30.325Z,4.60
2017-12-10T05:50:58.505Z,4.70
2017-12-10T05:53:26.686Z,4.20
2017-12-10T05:55:54.863Z,3.57
2017-12-10T05:58:23.046Z,3.60
2017-12-10T06:00:50.452Z,4.50
2017-12-10T06:03:17.864Z,3.17
2017-12-10T06:05:45.284Z,3.47
2017-12-10T06:08:12.693Z,4.90
2017-12-10T06:10:40.092Z,3.20
2017-12-10T06:13:08.283Z,4.43
2017-12-10T06:15:36.446Z,3.77
2017-12-10T06:18:04.953Z,4.17
2017-12-10T06:20:32.357Z,5.13
2017-12-10T06:22:59.769Z,4.27
2017-12-10T06:25:27.187Z,3.73
2017-12-10T06:27:54.605Z,3.60
2017-12-10T06:30:22.028Z,4.63
2017-12-10T06:32:50.205Z,4.77
2017-12-10T06:35:17.617Z,3.97
2017-12-10T06:37:45.031Z,4.30
2017-12-10T06:40:12.459Z,4.03
2017-12-10T06:42:41.244Z,5.10
2017-12-10T06:45:08.649Z,5.40
2017-12-10T06:47:36.050Z,6.03
2017-12-10T06:50:04.229Z,6.70
2017-12-10T06:52:32.413Z,6.33
2017-12-10T06:54:59.821Z,4.20
2017-12-10T06:57:27.237Z,6.73
2017-12-10T06:59:54.649Z,5.53
2017-12-10T07:02:22.063Z,6.00
2017-12-10T07:04:49.478Z,5.27
2017-12-10T07:07:17.662Z,7.93
2017-12-10T07:09:45.828Z,4.60
2017-12-10T07:12:14.023Z,5.47
2017-12-10T07:14:41.427Z,6.00
2017-12-10T07:17:08.833Z,5.50
2017-12-10T07:19:36.240Z,5.70
2017-12-10T07:22:03.661Z,5.40
2017-12-10T07:24:31.066Z,6.27
2017-12-10T07:26:58.479Z,6.33
2017-12-10T07:29:25.882Z,5.80
2017-12-10T07:31:54.061Z,5.77
2017-12-10T07:34:22.242Z,5.00
2017-12-10T07:36:50.433Z,6.13
2017-12-10T07:39:17.840Z,5.40
2017-12-10T07:41:45.269Z,4.23
2017-12-10T07:44:12.682Z,5.60
2017-12-10T07:46:40.855Z,5.47
2017-12-10T07:49:09.041Z,4.60
2017-12-10T07:51:37.219Z,6.23
2017-12-10T07:54:04.633Z,5.77
2017-12-10T07:56:32.036Z,5.13
2017-12-10T07:58:59.466Z,5.30
2017-12-10T08:01:27.642Z,6.03
2017-12-10T08:03:55.852Z,4.30
2017-12-10T08:06:23.257Z,5.10
2017-12-10T08:08:50.681Z,7.77
2017-12-10T08:11:18.097Z,4.63
2017-12-10T08:13:45.525Z,6.40
2017-12-10T08:16:12.937Z,6.60
2017-12-10T08:18:40.353Z,6.70
2017-12-10T08:21:08.534Z,6.17
2017-12-10T08:23:36.718Z,6.10
2017-12-10T08:26:04.133Z,6.93
2017-12-10T08:28:31.548Z,5.00
2017-12-10T08:30:58.962Z,5.80
2017-12-10T08:33:27.157Z,5.73
2017-12-10T08:35:55.341Z,4.50
2017-12-10T08:38:22.753Z,5.87
2017-12-10T08:40:50.164Z,5.80
2017-12-10T08:43:17.577Z,4.90
2017-12-10T08:45:45.745Z,3.70
2017-12-10T08:48:13.166Z,5.60
2017-12-10T08:50:40.578Z,4.00
2017-12-10T08:53:08.768Z,3.87
2017-12-10T08:55:37.133Z,4.80
2017-12-10T08:58:05.301Z,4.27
2017-12-10T09:00:33.477Z,3.87
2017-12-10T09:03:01.675Z,3.83
2017-12-10T09:05:29.075Z,2.70
2017-12-10T09:07:56.511Z,2.00
2017-12-10T09:10:23.918Z,2.57
2017-12-10T09:12:52.104Z,2.70
2017-12-10T09:15:19.514Z,3.57
2017-12-10T09:17:46.923Z,3.30
2017-12-10T09:20:14.329Z,3.27
2017-12-10T09:22:41.744Z,2.73
2017-12-10T09:25:09.153Z,3.10
2017-12-10T09:27:36.679Z,3.37
2017-12-10T09:30:04.086Z,3.10
2017-12-10T09:32:32.271Z,3.20
2017-12-10T09:34:59.680Z,2.40
2017-12-10T09:37:27.094Z,2.20
2017-12-10T09:39:54.507Z,2.30
2017-12-10T09:42:21.913Z,2.13
2017-12-10T09:44:49.332Z,1.50
2017-12-10T09:47:17.497Z,2.80
2017-12-10T09:49:45.676Z,2.93
2017-12-10T09:52:14.510Z,2.70
2017-12-10T09:54:41.941Z,3.00
2017-12-10T09:57:09.358Z,3.20
2017-12-10T09:59:36.776Z,3.13
2017-12-10T10:02:04.185Z,3.40
2017-12-10T10:04:31.596Z,3.70
2017-12-10T10:06:59.012Z,2.87
2017-12-10T10:09:27.195Z,3.17
2017-12-10T10:11:54.605Z,3.30
2017-12-10T10:14:22.022Z,2.10
2017-12-10T10:16:49.437Z,0.80
2017-12-10T10:19:16.855Z,2.77
2017-12-10T10:21:44.269Z,4.30
2017-12-10T10:24:11.680Z,2.30
2017-12-10T10:26:39.095Z,2.93
2017-12-10T10:29:06.515Z,2.90
2017-12-10T10:31:33.929Z,1.73
2017-12-10T10:34:01.345Z,3.20
2017-12-10T10:36:29.535Z,2.90
2017-12-10T10:38:56.937Z,3.27
2017-12-10T10:41:24.359Z,2.63
2017-12-10T10:43:51.769Z,2.10
2017-12-10T10:46:19.199Z,2.77
2017-12-10T10:48:46.605Z,3.33
2017-12-10T10:51:14.017Z,2.60
2017-12-10T10:53:41.429Z,1.87
2017-12-10T10:56:08.830Z,1.77
2017-12-10T10:58:36.245Z,2.80
2017-12-10T11:01:03.652Z,0.90
2017-12-10T11:03:31.070Z,3.47
2017-12-10T11:05:58.482Z,3.17
2017-12-10T11:08:26.666Z,2.93
2017-12-10T11:10:54.845Z,0.97
2017-12-10T11:13:22.266Z,2.53
2017-12-10T11:15:53.508Z,3.43
2017-12-10T11:18:22.581Z,0.60
2017-12-10T11:20:49.994Z,1.80
2017-12-10T11:23:18.182Z,1.20
2017-12-10T11:25:45.577Z,0.73
2017-12-10T11:28:13.004Z,0.87
2017-12-10T11:30:40.409Z,0.63
2017-12-10T11:33:07.829Z,0.30
2017-12-10T11:35:35.246Z,0.30
2017-12-10T11:38:03.438Z,0.50
2017-12-10T11:40:30.856Z,0.97
2017-12-10T11:42:58.256Z,0.30
2017-12-10T11:45:25.675Z,0.30
2017-12-10T11:47:53.850Z,0.43
2017-12-10T11:50:22.025Z,1.60
2017-12-10T11:52:50.197Z,0.87
2017-12-10T11:55:18.384Z,0.20
2017-12-10T11:57:46.607Z,0.43
2017-12-10T12:00:14.038Z,0.30
2017-12-10T12:02:41.449Z,0.20
2017-12-10T12:05:08.864Z,0.40
2017-12-10T12:07:36.287Z,0.30
2017-12-10T12:10:03.694Z,2.60
2017-12-10T12:12:31.122Z,0.73
2017-12-10T12:14:58.517Z,0.30
2017-12-10T12:17:25.939Z,0.30
2017-12-10T12:19:53.350Z,0.30
2017-12-10T12:22:21.545Z,0.40
2017-12-10T12:24:48.945Z,0.30
2017-12-10T12:27:17.134Z,0.20
2017-12-10T12:29:44.546Z,0.83
2017-12-10T12:32:11.958Z,0.30
2017-12-10T12:34:40.140Z,0.63
2017-12-10T12:37:08.309Z,0.53
2017-12-10T12:39:36.494Z,0.40
2017-12-10T12:42:04.673Z,0.30
2017-12-10T12:44:32.854Z,0.40
2017-12-10T12:47:00.269Z,0.50
2017-12-10T12:49:27.692Z,0.30
2017-12-10T12:51:55.101Z,0.40
2017-12-10T12:54:23.286Z,0.53
2017-12-10T12:56:51.465Z,0.50
2017-12-10T12:59:18.895Z,0.20
2017-12-10T13:01:46.298Z,0.60
2017-12-10T13:04:13.711Z,0.30
2017-12-10T13:06:41.126Z,0.20
2017-12-10T13:09:08.533Z,0.20
2017-12-10T13:11:36.719Z,0.30
2017-12-10T13:14:04.125Z,0.20
2017-12-10T13:16:31.545Z,0.30
2017-12-10T13:18:58.948Z,0.30
2017-12-10T13:21:26.370Z,0.30
2017-12-10T13:23:53.768Z,0.80
2017-12-10T13:26:21.201Z,0.30
2017-12-10T13:28:48.607Z,0.40
2017-12-10T13:31:16.790Z,0.30
2017-12-10T13:33:44.201Z,0.30
2017-12-10T13:36:11.605Z,0.30
2017-12-10T13:38:39.020Z,0.30
2017-12-10T13:41:06.432Z,1.80
2017-12-10T13:43:33.840Z,0.20
2017-12-10T13:46:02.018Z,0.30
2017-12-10T13:48:30.213Z,0.20
2017-12-10T13:50:57.620Z,0.20
2017-12-10T13:53:25.037Z,0.20
2017-12-10T13:55:52.440Z,0.40
2017-12-10T13:58:19.865Z,0.30
2017-12-10T14:00:47.278Z,0.30
2017-12-10T14:03:15.462Z,1.00
2017-12-10T14:05:43.637Z,0.30
2017-12-10T14:08:11.045Z,0.30
2017-12-10T14:10:38.478Z,0.30
2017-12-10T14:13:05.876Z,0.73
2017-12-10T14:15:33.297Z,0.30
2017-12-10T14:18:00.705Z,0.30
2017-12-10T14:20:28.881Z,0.30
2017-12-10T14:22:57.066Z,0.30
2017-12-10T14:25:24.488Z,3.90
2017-12-10T14:27:51.896Z,0.20
2017-12-10T14:30:19.301Z,0.20
2017-12-10T14:32:46.712Z,0.40
2017-12-10T14:35:14.132Z,0.40
2017-12-10T14:37:42.308Z,0.20
2017-12-10T14:40:10.517Z,0.30
2017-12-10T14:42:37.925Z,0.30
2017-12-10T14:45:05.380Z,0.30
2017-12-10T14:47:32.792Z,0.70
2017-12-10T14:50:00.205Z,0.30
2017-12-10T14:52:28.398Z,0.30
2017-12-10T14:54:55.801Z,0.47
2017-12-10T14:57:23.213Z,0.50
2017-12-10T14:59:50.617Z,0.50
2017-12-10T15:02:18.039Z,0.60
2017-12-10T15:04:45.450Z,0.30
2017-12-10T15:07:12.851Z,0.93
2017-12-10T15:09:40.260Z,0.40
2017-12-10T15:12:08.448Z,0.40
2017-12-10T15:14:36.612Z,1.13
2017-12-10T15:17:04.784Z,0.83
2017-12-10T15:19:32.970Z,0.50
2017-12-10T15:22:01.171Z,0.90
2017-12-10T15:24:28.585Z,5.27
2017-12-10T15:26:56.806Z,4.47
2017-12-10T15:29:24.258Z,6.77
2017-12-10T15:31:51.668Z,7.83
2017-12-10T15:34:19.082Z,9.00
2017-12-10T15:36:46.490Z,10.90
2017-12-10T15:39:14.664Z,13.37
2017-12-10T15:41:42.840Z,12.13
2017-12-10T15:44:11.018Z,11.23
2017-12-10T15:46:39.192Z,4.70
2017-12-10T15:49:07.373Z,5.83
2017-12-10T15:51:35.550Z,8.10
2017-12-10T15:54:02.956Z,8.10
2017-12-10T15:56:30.365Z,4.20
2017-12-10T15:58:57.833Z,7.77
2017-12-10T16:01:25.286Z,6.80
2017-12-10T16:03:52.699Z,9.70
2017-12-10T16:06:20.113Z,13.17
2017-12-10T16:08:48.199Z,3.40
2017-12-10T16:11:15.613Z,4.97
2017-12-10T16:13:43.019Z,3.00
2017-12-10T16:16:10.433Z,5.63
2017-12-10T16:18:37.850Z,5.10
2017-12-10T16:21:05.354Z,5.00
2017-12-10T16:23:32.757Z,4.33
2017-12-10T16:26:00.176Z,4.37
2017-12-10T16:28:27.584Z,4.17
2017-12-10T16:30:55.080Z,4.17
2017-12-10T16:33:22.489Z,4.80
2017-12-10T16:35:49.909Z,3.57
2017-12-10T16:38:17.345Z,5.57
2017-12-10T16:40:44.761Z,6.73
2017-12-10T16:43:12.174Z,4.80
2017-12-10T16:45:40.893Z,8.80
2017-12-10T16:48:08.301Z,4.40
2017-12-10T16:50:35.719Z,5.67
2017-12-10T16:53:03.129Z,3.70
2017-12-10T16:55:30.538Z,4.17
2017-12-10T16:57:58.720Z,5.90
2017-12-10T17:00:26.889Z,4.30
2017-12-10T17:02:55.078Z,2.70
2017-12-10T17:05:22.481Z,2.77
2017-12-10T17:07:49.893Z,4.00
2017-12-10T17:10:17.297Z,4.43
2017-12-10T17:12:44.710Z,4.00
2017-12-10T17:15:12.112Z,4.60
2017-12-10T17:17:39.621Z,3.97
2017-12-10T17:20:07.081Z,5.23
2017-12-10T17:22:34.509Z,4.60
2017-12-10T17:25:02.678Z,5.20
2017-12-10T17:27:30.080Z,5.37
2017-12-10T17:29:57.485Z,7.23
2017-12-10T17:32:27.648Z,9.70
2017-12-10T17:34:55.942Z,7.43
2017-12-10T17:37:23.345Z,7.90
2017-12-10T17:39:51.574Z,6.50
2017-12-10T17:42:19.008Z,8.27
2017-12-10T17:44:46.414Z,8.33
2017-12-10T17:47:13.817Z,9.73
2017-12-10T17:49:41.241Z,7.23
2017-12-10T17:52:09.417Z,9.80
2017-12-10T17:54:37.597Z,10.00
2017-12-10T17:57:05.023Z,10.20
2017-12-10T17:59:32.428Z,10.63
2017-12-10T18:01:59.845Z,8.70
2017-12-10T18:04:27.255Z,8.30
2017-12-10T18:06:54.680Z,10.23
2017-12-10T18:09:25.725Z,9.07
2017-12-10T18:11:53.329Z,9.60
2017-12-10T18:14:20.737Z,9.73
2017-12-10T18:16:48.922Z,9.93
2017-12-10T18:19:17.084Z,7.77
2017-12-10T18:21:45.277Z,8.93
2017-12-10T18:24:12.688Z,8.23
2017-12-10T18:26:40.089Z,8.97
2017-12-10T18:29:07.509Z,10.40
2017-12-10T18:31:34.917Z,9.33
2017-12-10T18:34:02.341Z,11.13
2017-12-10T18:36:30.518Z,11.73
2017-12-10T18:38:58.696Z,11.30
2017-12-10T18:41:26.104Z,9.70
2017-12-10T18:43:53.525Z,8.67
2017-12-10T18:46:20.938Z,11.50
2017-12-10T18:48:48.365Z,6.70
2017-12-10T18:51:15.760Z,7.07
2017-12-10T18:53:43.945Z,9.60
2017-12-10T18:56:11.353Z,8.80
2017-12-10T18:58:38.777Z,6.83
2017-12-10T19:01:06.193Z,6.60
2017-12-10T19:03:33.604Z,8.60
2017-12-10T19:06:01.004Z,6.07
2017-12-10T19:08:29.180Z,7.57
2017-12-10T19:10:56.583Z,9.47
2017-12-10T19:13:23.985Z,6.83
2017-12-10T19:15:51.401Z,9.00
2017-12-10T19:18:18.812Z,4.87
2017-12-10T19:20:46.989Z,10.53
2017-12-10T19:23:15.169Z,8.50
2017-12-10T19:25:42.581Z,6.93
2017-12-10T19:28:10.103Z,6.70
2017-12-10T19:30:37.517Z,9.13
2017-12-10T19:33:04.924Z,8.33
2017-12-10T19:35:32.373Z,5.80
2017-12-10T19:37:59.784Z,19.30
2017-12-10T19:40:27.185Z,9.80
2017-12-10T19:42:54.592Z,6.07
2017-12-10T19:45:22.000Z,5.17
2017-12-10T19:47:49.400Z,5.40
2017-12-10T19:50:16.812Z,4.93
2017-12-10T19:52:44.221Z,4.97
2017-12-10T19:55:13.009Z,4.93
2017-12-10T19:57:41.193Z,4.13
2017-12-10T20:00:09.404Z,3.70
2017-12-10T20:02:37.356Z,4.20
2017-12-10T20:05:04.760Z,4.10
2017-12-10T20:07:32.184Z,4.00
2017-12-10T20:09:59.589Z,3.60
2017-12-10T20:12:27.769Z,3.13
2017-12-10T20:14:55.182Z,3.97
2017-12-10T20:17:22.598Z,3.70
2017-12-10T20:19:50.774Z,4.00
2017-12-10T20:22:18.993Z,3.53
2017-12-10T20:24:46.434Z,3.07
2017-12-10T20:27:13.829Z,3.20
2017-12-10T20:29:41.241Z,3.90
2017-12-10T20:32:08.649Z,2.47
2017-12-10T20:34:36.058Z,2.87
2017-12-10T20:37:03.462Z,2.97
2017-12-10T20:39:30.877Z,2.67
2017-12-10T20:41:58.281Z,2.40
2017-12-10T20:44:26.461Z,2.50
2017-12-10T20:46:54.639Z,2.10
2017-12-10T20:49:22.874Z,2.00
2017-12-10T20:51:50.985Z,2.37
2017-12-10T20:54:19.156Z,2.93
2017-12-10T20:56:47.328Z,1.93
2017-12-10T20:59:15.509Z,2.93
2017-12-10T21:01:43.690Z,3.40
2017-12-10T21:04:11.109Z,2.43
2017-12-10T21:06:38.518Z,2.90
2017-12-10T21:09:05.930Z,2.30
2017-12-10T21:11:33.344Z,3.30
2017-12-10T21:14:00.753Z,3.20
2017-12-10T21:16:28.938Z,2.80
2017-12-10T21:18:57.354Z,3.80
2017-12-10T21:21:24.763Z,3.13
2017-12-10T21:23:52.988Z,2.40
2017-12-10T21:26:20.400Z,2.70
2017-12-10T21:28:48.572Z,2.33
2017-12-10T21:31:16.758Z,2.50
2017-12-10T21:33:44.157Z,3.67
2017-12-10T21:36:11.583Z,3.67
2017-12-10T21:38:38.982Z,6.93
2017-12-10T21:41:06.397Z,4.17
2017-12-10T21:43:33.799Z,1.63
2017-12-10T21:46:01.209Z,1.60
2017-12-10T21:48:28.627Z,1.10
2017-12-10T21:50:56.812Z,1.20
2017-12-10T21:53:24.989Z,1.80
2017-12-10T21:55:53.165Z,1.20
2017-12-10T21:58:21.340Z,1.10
2017-12-10T22:00:48.740Z,1.50
2017-12-10T22:03:16.169Z,0.87
2017-12-10T22:05:43.569Z,0.70
2017-12-10T22:08:10.993Z,5.60
2017-12-10T22:10:38.402Z,1.50
2017-12-10T22:13:06.593Z,10.00
2017-12-10T22:15:34.770Z,6.10
2017-12-10T22:18:02.185Z,2.23
2017-12-10T22:20:29.590Z,1.17
2017-12-10T22:22:57.021Z,0.60
2017-12-10T22:25:24.402Z,0.50
2017-12-10T22:27:52.522Z,0.80
2017-12-10T22:30:19.905Z,0.97
2017-12-10T22:32:48.089Z,1.30
2017-12-10T22:35:16.261Z,0.70
2017-12-10T22:37:44.436Z,0.40
2017-12-10T22:40:12.616Z,0.70
2017-12-10T22:42:40.017Z,0.80
2017-12-10T22:45:08.518Z,0.77
2017-12-10T22:47:35.902Z,0.83
2017-12-10T22:50:04.085Z,0.60
2017-12-10T22:52:32.249Z,0.80
2017-12-10T22:55:00.421Z,0.70
2017-12-10T22:57:28.596Z,1.30
2017-12-10T22:59:56.769Z,0.83
2017-12-10T23:02:24.941Z,1.33
2017-12-10T23:04:53.118Z,1.23
2017-12-10T23:07:21.298Z,1.83
2017-12-10T23:09:48.717Z,0.87
2017-12-10T23:12:16.127Z,0.60
2017-12-10T23:14:43.533Z,0.67
2017-12-10T23:17:10.954Z,1.93
2017-12-10T23:19:38.353Z,1.07
2017-12-10T23:22:05.773Z,1.50
2017-12-10T23:24:33.189Z,1.80
2017-12-10T23:27:00.597Z,1.00
2017-12-10T23:29:28.006Z,1.27
2017-12-10T23:31:55.410Z,1.73
2017-12-10T23:34:22.817Z,0.70
2017-12-10T23:36:50.237Z,1.13
2017-12-10T23:39:17.642Z,1.00
2017-12-10T23:41:45.049Z,1.10
2017-12-10T23:44:12.461Z,1.00
2017-12-10T23:46:39.865Z,1.40
2017-12-10T23:49:07.284Z,1.23
2017-12-10T23:51:34.686Z,1.43
2017-12-10T23:54:02.871Z,1.00
2017-12-10T23:56:31.054Z,1.43
2017-12-10T23:58:58.460Z,0.80
